罗盘
风向 的 风向 040° Noord Nederlandse Zweefvliegclub 9/27
风: 4 kt, 2 beaufort

3 kt

3 kt
改变
0 1.000 2.000 3.000 4.000 5.000
FEW 100 ft
BKN 200 ft
FEW 1.500 ft
METAR EHGG 170625Z AUTO 04004KT 1700 BR FEW001 BKN002 FEW015CB 18/18 Q1011 BECMG 4000 FEW008

METAR Noord Nederlandse Zweefvliegclub - NL-0036

Noord Nederlandse Zweefvliegclub是Borgercompagnie,荷兰中的格利德菲尔德。 该机场有一条跑道: 9/27. 该领域的国际民航组织标志是NL-0036.

这份报告是针对2022年8月17日 08:25, 当地时间在Groningen Airport Eelde进行的。

机场观察

风向为040°,速度为4 kt。

可见度为1,7 km。

有几云在100 ft的高度, 碎云在200 ft的高度 和 几云 积雨云在1.500 ft的高度。 破损或更高的上限为200 ft。

当前天气为薄雾。 温度和风寒是18 °C。 露点为18 °C,相对湿度为100%。 海平面上的气压为1011 hPa (QNH)。

发展趋势

  • 变得

    可变方向的风很小或没有。 可见性变为4 km。 几云在800 ft的高度.

白天

今天,太阳从06:17升起,在20:56降落。 这适用于Noord Nederlandse Zweefvliegclub,世界夏令时可能有所不同。 当地时间与世界标准时间之间的时差为+2 小时。 夏令时目前正在进行中。

公司介绍

在这个机场,你可以找到飞行俱乐部。 本场上唯一已知的公司是Noord Nederlandse Zweefvliegclub。

体会

到Vliegles.nl去找飞行课程,跳伞和其他飞行体验。 浏览页面,了解Noord Nederlandse Zweefvliegclub附近所有可用的活动。 你也可以使用搜索功能来寻找你所在地附近的特定飞行课程、跳伞或其他飞行体验。

跑道

Id 标题 侧风 逆风 侧风 %
9/27 090°-270° 3 kt 3 kt 77 %

逆风成分最大的方向会被突出显示,并用于横风计算。 这并不一定意味着这个方向在使用。

乌云

100 ft FEW 几云
200 ft BKN 碎云
1.500 ft FEW 几云 积雨云
800 ft FEW 变得 几云

温度 & 天气

天气 薄雾
温度 18 °C
露点 18 °C
相对湿度 100%
Kp-index 1  

白天

日出
06:18
中午
13:37
日落
20:57 (12h 04m)

小工具

你想在你的网站上有一个关于Noord Nederlandse Zweefvliegclub的当前航空天气(METAR)的小部件吗?

</> 显示HTML代码

我们和第三方通过cookies跟踪您在我们网站上的上网行为。如果您继续,我们认为您同意我们的cookie政策。 了解更多